Time;durP1;ratioP1;P1;durP2;ratioP2;P2;SDS_P1;SDS_P2;PMS_P1;PMS_P2;Temp;Humidity;BMP_temperature;BMP_pressure;BME280_temperature;BME280_humidity;BME280_pressure;Samples;Min_cycle;Max_cycle;Signal;HPM_P1;HPM_P2
2022/11/04 00:01:04;;;;;;;;;0.00;0.00;;;;;8.37;77.01;99308.97;6195512;23;45120;-93
2022/11/04 00:03:48;;;;;;;;;0.00;0.00;;;;;9.13;77.31;99425.19;6195896;23;46185;-93
2022/11/04 00:06:22;;;;;;;;;0.75;0.75;;;;;8.50;77.01;99333.16;6169114;23;44598;-93
2022/11/04 00:08:56;;;;;;;;;1.50;0.75;;;;;8.64;76.85;99330.97;6166878;23;45130;-94
2022/11/04 00:14:45;;;;;;;;;1.00;1.00;;;;;8.66;76.76;99330.94;6186495;23;45243;-93
2022/11/04 00:17:23;;;;;;;;;0.75;0.75;;;;;8.50;76.85;99276.13;6154844;23;45261;-93
2022/11/04 00:29:06;;;;;;;;;1.00;0.50;;;;;10.08;77.62;99551.31;6136055;23;45431;-94
2022/11/04 00:34:29;;;;;;;;;0.75;0.75;;;;;9.76;77.24;99482.00;6190951;23;44612;-94
2022/11/04 00:37:01;;;;;;;;;0.75;0.75;;;;;9.67;77.37;99457.69;6198578;23;45114;-94
2022/11/04 00:39:27;;;;;;;;;0.75;0.75;;;;;10.20;77.60;99552.63;6170493;23;44850;-94
2022/11/04 00:41:53;;;;;;;;;0.50;0.50;;;;;8.83;76.80;99312.78;6163608;23;45399;-93
2022/11/04 00:44:19;;;;;;;;;1.00;1.00;;;;;9.36;76.82;99395.41;6159547;23;45378;-94
2022/11/04 00:46:47;;;;;;;;;1.00;1.00;;;;;9.66;77.35;99456.84;6135280;23;46647;-94
2022/11/04 00:49:12;;;;;;;;;2.00;0.00;;;;;8.52;77.54;99255.84;6168414;23;45193;-94
2022/11/04 00:51:52;;;;;;;;;1.00;1.00;;;;;10.25;77.42;99534.88;6168243;23;45208;-92
2022/11/04 00:54:30;;;;;;;;;0.00;0.00;;;;;8.26;77.70;99232.06;6140495;23;45406;-94
2022/11/04 00:57:01;;;;;;;;;1.00;1.00;;;;;8.78;77.39;99303.34;6185181;23;46251;-94
2022/11/04 00:59:49;;;;;;;;;0.50;0.50;;;;;8.58;77.46;99256.53;6186506;23;45353;-94
2022/11/04 01:02:34;;;;;;;;;;;;;;;;;;;;;
2022/11/04 01:12:06;;;;;;;;;1.50;1.50;;;;;8.15;77.28;99161.34;6186776;23;45220;-93
2022/11/04 01:14:56;;;;;;;;;1.25;1.25;;;;;9.71;77.29;99423.22;6183084;23;45398;-92
2022/11/04 01:20:16;;;;;;;;;0.00;0.00;;;;;8.64;77.68;99230.88;6181884;23;45156;-92
2022/11/04 01:23:17;;;;;;;;;;;;;;;;;;;;;
2022/11/04 01:26:09;;;;;;;;;0.75;0.75;;;;;9.14;77.40;99319.69;6166982;23;68062;-94
2022/11/04 01:28:58;;;;;;;;;0.00;0.00;;;;;9.83;77.52;99431.66;6144167;23;45709;-92
2022/11/04 01:38:08;;;;;;;;;2.00;1.00;;;;;8.44;77.33;99212.22;6103812;23;45231;-95
2022/11/04 01:40:42;;;;;;;;;0.00;0.00;;;;;7.45;77.12;99037.31;6099961;23;45204;-93
2022/11/04 01:43:23;;;;;;;;;2.00;0.00;;;;;9.10;77.56;99301.41;6093045;23;46682;-93
2022/11/04 01:45:55;;;;;;;;;0.00;0.00;;;;;9.16;77.58;99333.66;6070705;23;45488;-94
2022/11/04 01:48:41;;;;;;;;;0.00;0.00;;;;;10.23;78.02;99502.38;6095993;23;45284;-93
2022/11/04 01:51:21;;;;;;;;;1.50;1.50;;;;;9.33;77.59;99353.34;6093691;23;45304;-93
2022/11/04 01:54:05;;;;;;;;;1.00;0.00;;;;;10.23;77.83;99506.78;6096076;23;45275;-92
2022/11/04 01:56:53;;;;;;;;;1.00;1.00;;;;;8.00;77.48;99118.84;6103826;23;45367;-93
2022/11/04 01:59:53;;;;;;;;;0.00;0.00;;;;;7.64;77.10;99077.03;6100824;23;45174;-93
2022/11/04 02:02:31;;;;;;;;;;;;;;;;;;;;;
2022/11/04 02:08:27;;;;;;;;;1.00;1.00;;;;;10.23;77.17;99462.78;6106412;23;44730;-92
2022/11/04 02:11:02;;;;;;;;;1.00;1.00;;;;;8.78;77.45;99245.38;6114646;23;45284;-92
2022/11/04 02:13:36;;;;;;;;;0.00;0.00;;;;;10.22;77.68;99494.50;6160896;23;45310;-91
2022/11/04 02:16:59;;;;;;;;;2.00;1.00;;;;;9.27;77.71;99312.22;6159153;23;45264;-93
2022/11/04 02:20:08;;;;;;;;;1.00;1.00;;;;;10.22;77.40;99460.16;6069835;23;45629;-92
2022/11/04 02:23:15;;;;;;;;;0.50;0.50;;;;;10.21;77.46;99458.47;6099211;23;45306;-92
2022/11/04 02:26:28;;;;;;;;;1.50;1.00;;;;;10.19;77.26;99460.28;6071496;23;45436;-93
2022/11/04 02:29:34;;;;;;;;;1.00;0.00;;;;;10.18;77.43;99463.84;6040089;23;46916;-93
2022/11/04 02:32:18;;;;;;;;;0.50;0.00;;;;;9.02;77.11;99268.25;6039918;23;45526;-91
2022/11/04 02:35:05;;;;;;;;;1.00;1.00;;;;;9.06;77.00;99290.06;6053332;23;45351;-92
2022/11/04 02:38:28;;;;;;;;;0.00;0.00;;;;;9.56;77.50;99371.00;6042620;23;45349;-93
2022/11/04 02:41:37;;;;;;;;;1.00;1.00;;;;;8.61;77.29;99211.66;5925581;24;46705;-92
2022/11/04 02:44:27;;;;;;;;;0.25;0.25;;;;;10.15;77.36;99467.44;5958428;23;45177;-91
2022/11/04 02:47:09;;;;;;;;;0.25;0.25;;;;;9.32;77.57;99352.47;5952366;23;45430;-92
2022/11/04 02:49:57;;;;;;;;;0.00;0.00;;;;;10.17;77.61;99467.41;5960709;23;45228;-92
2022/11/04 02:53:15;;;;;;;;;0.00;0.00;;;;;10.19;77.30;99465.56;5993905;23;45308;-91
2022/11/04 02:55:56;;;;;;;;;0.75;0.25;;;;;8.13;77.19;99116.66;6012881;23;45210;-91
2022/11/04 02:58:37;;;;;;;;;2.50;0.00;;;;;8.58;77.24;99181.03;5991206;23;45304;-91
2022/11/04 03:01:18;;;;;;;;;1.00;0.00;;;;;8.60;77.50;99173.94;5961891;23;45281;-92
2022/11/04 03:03:55;;;;;;;;;0.00;0.00;;;;;9.66;77.38;99350.44;5963374;23;46585;-92
2022/11/04 03:06:28;;;;;;;;;1.75;0.00;;;;;8.77;77.29;99185.69;6018910;23;45267;-92
2022/11/04 03:09:07;;;;;;;;;1.00;0.00;;;;;9.31;77.40;99303.28;6010429;23;45377;-91
2022/11/04 03:11:36;;;;;;;;;1.00;1.00;;;;;8.55;76.76;99152.19;6010232;23;45297;-92
2022/11/04 03:14:26;;;;;;;;;2.00;0.00;;;;;8.65;77.16;99174.63;6012613;23;45702;-92
2022/11/04 03:17:08;;;;;;;;;1.00;0.50;;;;;9.76;76.93;99355.34;6042355;23;44700;-92
2022/11/04 03:19:55;;;;;;;;;0.50;0.50;;;;;10.34;77.51;99433.34;6014221;23;45388;-93
2022/11/04 03:22:35;;;;;;;;;1.00;0.00;;;;;9.57;77.38;99301.50;6161361;23;45322;-92
2022/11/04 03:25:08;;;;;;;;;2.25;0.50;;;;;9.68;77.30;99301.97;6163879;23;47242;-93
2022/11/04 03:27:59;;;;;;;;;0.00;0.00;;;;;10.38;77.14;99413.81;6184468;23;44745;-91
2022/11/04 03:30:50;;;;;;;;;1.25;1.00;;;;;8.65;77.09;99134.28;6197220;22;45208;-92
2022/11/04 03:33:37;;;;;;;;;0.00;0.00;;;;;10.39;76.97;99420.84;6196656;23;45275;-92
2022/11/04 03:36:07;;;;;;;;;1.00;0.00;;;;;9.23;77.25;99215.66;6205129;23;47127;-91
2022/11/04 03:38:42;;;;;;;;;0.00;0.00;;;;;8.61;77.22;99117.72;6231027;22;44925;-92
2022/11/04 03:41:34;;;;;;;;;0.00;0.00;;;;;8.83;76.96;99149.44;6190617;23;45197;-92
2022/11/04 03:44:20;;;;;;;;;0.00;0.00;;;;;9.25;76.99;99221.78;6183654;22;45433;-92
2022/11/04 03:47:01;;;;;;;;;0.50;0.50;;;;;10.03;77.14;99365.78;6201726;22;46136;-91
2022/11/04 03:49:26;;;;;;;;;1.00;1.00;;;;;7.96;77.08;99017.25;6217322;22;45184;-93
2022/11/04 03:51:52;;;;;;;;;0.00;0.00;;;;;7.83;76.81;98985.25;6187337;22;45404;-92
2022/11/04 03:54:25;;;;;;;;;2.00;0.75;;;;;7.98;76.57;99023.31;6213332;22;45277;-92
2022/11/04 03:57:52;;;;;;;;;0.50;0.50;;;;;8.01;77.01;99011.81;6204187;22;47560;-91
2022/11/04 04:00:25;;;;;;;;;0.00;0.00;;;;;9.99;76.84;99348.38;6071327;23;45224;-92
2022/11/04 04:03:14;;;;;;;;;1.00;1.00;;;;;10.32;76.85;99392.88;6075807;23;45284;-92
2022/11/04 04:05:58;;;;;;;;;1.00;0.00;;;;;7.60;77.09;98949.19;6040993;23;45419;-91
2022/11/04 04:08:47;;;;;;;;;0.00;0.00;;;;;10.29;76.87;99407.09;6040103;23;45443;-91
2022/11/04 04:11:50;;;;;;;;;0.00;0.00;;;;;8.07;76.98;99058.97;6039076;23;45271;-92
2022/11/04 04:14:43;;;;;;;;;0.00;0.00;;;;;9.70;76.61;99338.84;6042086;23;45402;-92
2022/11/04 04:17:37;;;;;;;;;0.75;0.00;;;;;10.26;77.02;99417.78;6039821;23;45456;-92
2022/11/04 04:20:14;;;;;;;;;0.00;0.00;;;;;8.82;77.11;99163.53;6066101;23;46087;-91
2022/11/04 04:28:45;;;;;;;;;1.50;0.00;;;;;7.73;76.63;99009.25;6018111;23;45181;-92
2022/11/04 04:31:48;;;;;;;;;0.00;0.00;;;;;8.34;76.63;99107.19;6044397;23;47334;-92
2022/11/04 04:34:04;;;;;;;;;0.00;0.00;;;;;9.04;76.84;99226.88;6098429;23;45261;-94
2022/11/04 04:36:49;;;;;;;;;0.00;0.00;;;;;9.21;77.04;99263.19;6074562;23;45282;-93
2022/11/04 04:47:34;;;;;;;;;0.00;0.00;;;;;9.66;76.62;99330.19;6091791;23;45406;-93
2022/11/04 04:50:07;;;;;;;;;0.00;0.00;;;;;9.97;76.73;99381.84;6068267;23;45299;-94
2022/11/04 04:52:39;;;;;;;;;0.00;0.00;;;;;9.59;77.06;99315.50;6068473;23;48078;-95
2022/11/04 04:55:06;;;;;;;;;0.00;0.00;;;;;10.16;77.10;99421.66;6069823;23;45260;-92
2022/11/04 04:57:38;;;;;;;;;0.00;0.00;;;;;9.39;76.67;99305.66;6076490;23;45366;-94
2022/11/04 05:00:06;;;;;;;;;0.00;0.00;;;;;9.07;76.75;99241.72;6070506;23;45295;-94
2022/11/04 05:02:32;;;;;;;;;0.25;0.00;;;;;10.13;76.67;99449.03;6090476;23;45229;-93
2022/11/04 05:05:02;;;;;;;;;1.50;0.00;;;;;8.96;76.64;99271.09;6209659;22;45482;-92
2022/11/04 05:07:30;;;;;;;;;0.00;0.00;;;;;8.96;76.70;99239.47;6214868;22;45307;-92
2022/11/04 05:09:58;;;;;;;;;1.00;0.00;;;;;7.86;76.89;99049.19;6212846;22;45226;-92
2022/11/04 05:12:24;;;;;;;;;0.00;0.00;;;;;9.06;76.84;99250.53;6189200;22;47521;-92
2022/11/04 05:14:49;;;;;;;;;0.00;0.00;;;;;7.00;76.51;98902.97;6214184;22;45235;-91
2022/11/04 05:17:15;;;;;;;;;1.25;0.00;;;;;9.03;76.66;99246.25;6221796;22;45200;-92
2022/11/04 05:19:43;;;;;;;;;0.00;0.00;;;;;8.23;76.89;99119.88;6198243;22;45299;-91
2022/11/04 05:22:08;;;;;;;;;0.00;0.00;;;;;8.74;76.41;99217.41;6214203;22;46896;-92
2022/11/04 05:24:34;;;;;;;;;0.00;0.00;;;;;8.94;76.61;99246.53;6194666;22;45926;-93
2022/11/04 05:27:02;;;;;;;;;0.00;0.00;;;;;8.98;76.43;99245.53;6194926;22;45152;-92
2022/11/04 05:29:29;;;;;;;;;0.25;0.25;;;;;8.66;76.62;99194.81;6196414;22;45525;-91
2022/11/04 05:31:57;;;;;;;;;0.00;0.00;;;;;8.47;76.60;99173.50;6189009;22;45332;-92
2022/11/04 05:34:45;;;;;;;;;1.00;0.00;;;;;8.17;76.73;99113.03;6218100;22;45405;-91
2022/11/04 05:37:11;;;;;;;;;0.00;0.00;;;;;10.02;76.34;99419.53;6215758;22;45209;-91
2022/11/04 05:39:42;;;;;;;;;0.50;0.00;;;;;9.31;76.54;99303.28;6164531;22;45612;-91
2022/11/04 05:42:16;;;;;;;;;0.00;0.00;;;;;8.47;76.09;99185.78;6166257;22;46587;-91
2022/11/04 05:44:42;;;;;;;;;0.00;0.00;;;;;9.86;76.82;99410.41;6196364;22;45810;-91
2022/11/04 05:47:08;;;;;;;;;1.25;0.00;;;;;7.81;77.01;99086.16;6200119;22;45135;-92
2022/11/04 05:49:39;;;;;;;;;2.50;0.00;;;;;8.80;76.59;99228.56;6203502;22;45177;-91
2022/11/04 05:52:04;;;;;;;;;0.00;0.00;;;;;7.76;77.08;99064.41;6178776;22;45150;-92
2022/11/04 05:54:30;;;;;;;;;0.00;0.00;;;;;7.67;76.39;99065.56;6204675;22;45397;-90
2022/11/04 05:56:59;;;;;;;;;0.00;0.00;;;;;9.43;76.83;99379.34;6199209;22;45347;-91
2022/11/04 05:59:26;;;;;;;;;0.00;0.00;;;;;9.04;76.44;99299.81;6164073;23;45189;-91
2022/11/04 06:01:52;;;;;;;;;0.00;0.00;;;;;8.82;76.54;99262.78;6161810;23;48251;-92
2022/11/04 06:04:18;;;;;;;;;0.00;0.00;;;;;8.87;76.99;99276.69;6183738;23;45322;-92
2022/11/04 06:06:46;;;;;;;;;0.00;0.00;;;;;8.63;76.50;99238.84;6157878;23;45224;-92
2022/11/04 06:09:11;;;;;;;;;0.00;0.00;;;;;8.33;76.07;99189.72;6158982;23;45418;-93
2022/11/04 06:11:45;;;;;;;;;0.00;0.00;;;;;10.07;76.53;99488.00;6159253;23;47073;-92
2022/11/04 06:20:33;;;;;;;;;0.75;0.00;;;;;8.27;76.29;99187.28;6187521;23;45156;-92
2022/11/04 06:23:19;;;;;;;;;2.00;0.00;;;;;8.78;76.58;99267.31;6170085;23;46745;-93
2022/11/04 06:25:56;;;;;;;;;0.25;0.25;;;;;8.85;76.31;99291.66;6204088;23;44604;-91
2022/11/04 06:28:34;;;;;;;;;0.00;0.00;;;;;7.71;76.44;99111.03;6160741;23;44624;-92
2022/11/04 06:31:13;;;;;;;;;0.00;0.00;;;;;10.07;76.92;99491.50;6162649;23;45469;-92
2022/11/04 06:33:44;;;;;;;;;0.00;0.00;;;;;7.54;76.42;99075.59;6135700;23;45554;-90
2022/11/04 06:36:16;;;;;;;;;0.00;0.00;;;;;8.49;76.58;99228.75;6161521;23;45410;-92
2022/11/04 06:38:51;;;;;;;;;0.00;0.00;;;;;8.91;76.69;99294.09;6174668;23;44620;-90
2022/11/04 06:41:29;;;;;;;;;0.00;0.00;;;;;9.58;76.65;99411.38;6163125;23;45303;-91
2022/11/04 06:44:14;;;;;;;;;1.00;1.00;;;;;7.55;76.14;99072.06;6158836;23;45541;-92
2022/11/04 06:46:41;;;;;;;;;0.00;0.00;;;;;8.88;76.61;99288.91;6136851;23;45371;-93
2022/11/04 06:49:16;;;;;;;;;0.00;0.00;;;;;9.54;76.52;99412.41;6158268;23;45463;-91
2022/11/04 06:54:38;;;;;;;;;1.00;0.00;;;;;8.73;76.62;99268.34;6196831;23;45203;-92
2022/11/04 06:57:17;;;;;;;;;1.00;1.00;;;;;9.18;76.80;99352.94;6176848;23;44601;-91
2022/11/04 06:59:52;;;;;;;;;0.25;0.25;;;;;8.08;76.32;99176.50;6189710;23;45328;-94
2022/11/04 07:02:24;;;;;;;;;0.00;0.00;;;;;10.07;76.61;99504.69;6138459;23;45249;-92
2022/11/04 07:05:02;;;;;;;;;0.00;0.00;;;;;7.94;76.34;99141.84;6160345;23;46333;-93
2022/11/04 07:07:38;;;;;;;;;0.50;0.00;;;;;9.50;76.20;99440.63;6164692;23;45777;-94
2022/11/04 07:10:10;;;;;;;;;0.00;0.00;;;;;9.50;76.69;99438.00;6188772;23;45380;-92
2022/11/04 07:12:39;;;;;;;;;0.00;0.00;;;;;9.52;76.57;99422.13;6156619;23;45174;-91
2022/11/04 07:15:13;;;;;;;;;0.00;0.00;;;;;9.20;76.44;99376.59;6162274;23;46986;-93
2022/11/04 07:17:43;;;;;;;;;1.00;1.00;;;;;7.95;76.24;99170.75;6142534;23;45395;-94
2022/11/04 07:20:12;;;;;;;;;0.00;0.00;;;;;9.13;76.48;99380.38;6193282;23;44738;-94
2022/11/04 07:22:43;;;;;;;;;0.25;0.25;;;;;8.65;76.70;99308.97;6167668;23;45320;-94
2022/11/04 07:28:09;;;;;;;;;0.00;0.00;;;;;10.16;76.38;99539.59;6187901;23;45173;-93
2022/11/04 07:37:23;;;;;;;;;0.50;0.00;;;;;9.09;76.46;99366.41;6100785;23;45188;-92
2022/11/04 07:39:52;;;;;;;;;0.00;0.00;;;;;9.05;76.16;99357.75;6071600;23;45433;-92
2022/11/04 07:42:37;;;;;;;;;0.00;0.00;;;;;8.93;75.79;99345.00;6095083;23;45312;-94
2022/11/04 07:45:18;;;;;;;;;0.75;0.75;;;;;9.29;76.55;99413.22;6074316;23;45228;-94
2022/11/04 07:47:53;;;;;;;;;0.25;0.25;;;;;10.35;76.43;99590.91;6099840;23;46577;-93
2022/11/04 07:50:24;;;;;;;;;1.75;1.00;;;;;10.42;76.62;99581.00;6114797;23;44731;-92
2022/11/04 07:52:56;;;;;;;;;2.00;1.00;;;;;8.01;76.46;99181.06;6082853;23;45248;-93
2022/11/04 07:55:32;;;;;;;;;2.75;1.00;;;;;9.52;76.01;99430.03;6072251;23;45445;-94
2022/11/04 07:58:31;;;;;;;;;1.00;0.00;;;;;7.87;76.03;99130.69;6060166;23;47777;-92
2022/11/04 08:01:26;;;;;;;;;0.00;0.00;;;;;9.55;75.93;99404.44;6069462;23;45287;-94
2022/11/04 08:04:07;;;;;;;;;0.00;0.00;;;;;9.91;76.03;99462.09;6097296;23;45151;-92
2022/11/04 08:06:51;;;;;;;;;3.25;0.00;;;;;10.14;76.02;99461.31;6187575;23;45188;-93
2022/11/04 08:09:17;;;;;;;;;0.00;0.00;;;;;11.30;75.67;99617.47;6174342;23;47268;-92
2022/11/04 08:15:33;;;;;;;;;1.25;1.00;;;;;11.27;74.47;99487.97;6070165;23;45363;-92
2022/11/04 08:25:30;;;;;;;;;0.00;0.00;;;;;13.21;73.81;99630.72;6073599;23;44856;-92
2022/11/04 08:28:33;;;;;;;;;;;;;;;;;;;;;
2022/11/04 08:31:21;;;;;;;;;1.50;0.00;;;;;12.79;73.42;99415.13;6060303;23;45453;-91
2022/11/04 08:34:36;;;;;;;;;0.00;0.00;;;;;11.91;72.74;99214.38;6039173;23;46977;-94
2022/11/04 08:37:04;;;;;;;;;0.25;0.00;;;;;12.68;72.36;99269.00;6032930;23;45434;-94
2022/11/04 08:46:42;;;;;;;;;0.00;0.00;;;;;14.30;71.34;99430.63;6045112;23;45363;-92
2022/11/04 08:49:11;;;;;;;;;2.00;0.00;;;;;13.68;71.10;99298.41;6014481;23;45366;-91
2022/11/04 08:58:22;;;;;;;;;0.00;0.00;;;;;13.94;70.83;99325.38;6008349;23;45230;-94
2022/11/04 09:18:15;;;;;;;;;2.00;0.75;;;;;13.76;70.64;99452.03;5936618;23;45459;-93
2022/11/04 09:30:54;;;;;;;;;2.00;0.00;;;;;13.61;71.39;99554.53;5854091;24;45166;-92
2022/11/04 09:37:10;;;;;;;;;1.00;0.00;;;;;13.78;70.92;99648.47;5893764;24;45416;-93
2022/11/04 09:40:30;;;;;;;;;0.50;0.50;;;;;11.87;70.81;99368.97;5873281;24;45517;-92
2022/11/04 09:43:29;;;;;;;;;1.00;1.00;;;;;14.01;71.15;99743.84;5885986;24;44796;-91
2022/11/04 09:46:51;;;;;;;;;;;;;;;;;;;;;
2022/11/04 09:53:10;;;;;;;;;0.00;0.00;;;;;13.19;71.33;99698.88;5869677;24;45303;-91
2022/11/04 09:59:27;;;;;;;;;0.50;0.50;;;;;11.63;71.10;99466.19;5870676;24;45460;-91
2022/11/04 10:02:21;;;;;;;;;0.00;0.00;;;;;11.10;71.39;99415.44;5846054;24;45474;-94
2022/11/04 10:22:40;;;;;;;;;;;;;;;;;;;;;
2022/11/04 10:51:22;;;;;;;;;;;;;;;;;;;;;
2022/11/04 10:54:05;;;;;;;;;1.25;1.25;;;;;11.65;70.07;99490.81;5891804;24;69967;-92
2022/11/04 10:57:13;;;;;;;;;;;;;;;;;;;;;
2022/11/04 11:30:13;;;;;;;;;1.75;1.00;;;;;15.64;67.32;99923.88;6058804;23;44753;-93
2022/11/04 11:36:31;;;;;;;;;1.00;0.00;;;;;15.74;67.01;99940.22;6049113;23;45229;-94
2022/11/04 11:39:21;;;;;;;;;0.25;0.25;;;;;15.66;66.63;99937.09;6033167;23;45453;-94
2022/11/04 11:42:36;;;;;;;;;;;;;;;;;;;;;
2022/11/04 11:55:56;;;;;;;;;0.00;0.00;;;;;15.25;66.24;99845.06;6010815;23;45427;-93
2022/11/04 11:58:41;;;;;;;;;3.00;0.50;;;;;15.80;66.88;99979.94;6017063;23;45277;-93
2022/11/04 12:08:13;;;;;;;;;;;;;;;;;;;;;
2022/11/04 12:14:32;;;;;;;;;0.75;0.75;;;;;13.51;65.78;99638.19;6018893;23;45202;-94
2022/11/04 12:17:35;;;;;;;;;0.25;0.25;;;;;16.03;65.76;100020.50;5988057;23;45221;-93
2022/11/04 12:20:48;;;;;;;;;1.25;1.25;;;;;16.84;64.63;100023.34;5983494;23;45163;-92
2022/11/04 12:24:02;;;;;;;;;0.50;0.50;;;;;16.51;63.21;99866.00;5870361;24;45139;-94
2022/11/04 12:27:05;;;;;;;;;0.50;0.50;;;;;17.93;63.12;100040.41;5892277;24;47122;-96
2022/11/04 12:30:16;;;;;;;;;3.50;2.00;;;;;18.11;61.93;100045.59;5854149;24;45407;-92
2022/11/04 12:33:35;;;;;;;;;0.75;0.25;;;;;16.96;63.19;99916.88;5924089;23;45138;-95
2022/11/04 12:36:22;;;;;;;;;1.50;1.50;;;;;17.84;63.59;100067.63;5971280;23;45064;-94
2022/11/04 12:39:19;;;;;;;;;0.75;0.75;;;;;17.94;62.43;100063.47;5983352;23;46257;-92
2022/11/04 12:42:57;;;;;;;;;1.50;0.50;;;;;17.84;62.26;100062.28;5982461;23;45369;-93
2022/11/04 12:46:12;;;;;;;;;3.25;1.00;;;;;17.53;63.84;100088.09;5969200;23;45324;-92
2022/11/04 12:49:24;;;;;;;;;2.00;0.50;;;;;17.25;63.71;100078.09;5966028;23;45153;-93
2022/11/04 12:52:08;;;;;;;;;2.50;2.50;;;;;16.96;63.65;100095.69;5955755;23;46208;-92
2022/11/04 12:55:11;;;;;;;;;1.25;0.75;;;;;16.74;64.56;100098.66;5996247;23;45237;-94
2022/11/04 12:58:04;;;;;;;;;0.50;0.50;;;;;16.20;64.66;100048.09;6016564;23;44688;-93
2022/11/04 13:00:37;;;;;;;;;0.00;0.00;;;;;15.37;64.35;99936.78;6058960;23;44850;-94
2022/11/04 13:03:40;;;;;;;;;1.00;1.00;;;;;15.99;64.91;100077.59;6091249;23;47628;-93
2022/11/04 13:06:32;;;;;;;;;1.00;1.00;;;;;15.37;65.17;100026.44;6082034;23;45175;-95
2022/11/04 13:09:48;;;;;;;;;1.75;1.75;;;;;15.52;64.88;100068.31;6095339;23;45248;-95
2022/11/04 13:12:41;;;;;;;;;1.75;1.75;;;;;12.85;64.96;99665.91;6039004;23;45442;-94
2022/11/04 13:15:21;;;;;;;;;2.00;2.00;;;;;15.50;65.29;100109.25;6027288;23;47029;-92
2022/11/04 13:18:12;;;;;;;;;1.00;1.00;;;;;15.03;65.45;100074.16;6038520;23;45238;-92
2022/11/04 13:20:58;;;;;;;;;1.00;1.00;;;;;15.21;65.78;100154.09;6064810;23;45394;-94
2022/11/04 13:23:52;;;;;;;;;1.00;1.00;;;;;13.97;66.65;99984.03;6069230;23;45447;-94
2022/11/04 13:26:19;;;;;;;;;1.00;1.00;;;;;14.86;66.46;100165.38;6075126;23;46127;-92
2022/11/04 13:29:33;;;;;;;;;2.75;1.00;;;;;13.55;66.76;99976.09;6070333;23;45150;-92
2022/11/04 13:32:09;;;;;;;;;2.25;1.00;;;;;13.66;66.67;100057.03;6012338;23;45148;-93
2022/11/04 13:41:25;;;;;;;;;1.00;0.25;;;;;13.89;68.58;100213.72;6052584;23;44854;-94
2022/11/04 13:44:23;;;;;;;;;2.00;1.00;;;;;12.44;68.90;100028.97;6016700;23;45332;-95
2022/11/04 14:24:16;;;;;;;;;0.00;0.00;;;;;9.61;70.55;99851.88;6068979;23;45384;-93
2022/11/04 14:27:50;;;;;;;;;1.00;1.00;;;;;9.61;71.05;99865.06;5975795;23;45285;-94
2022/11/04 14:31:08;;;;;;;;;;;;;;;;;;;;;
2022/11/04 14:34:05;;;;;;;;;2.00;2.00;;;;;12.29;71.12;100315.72;5810623;24;75526;-93
2022/11/04 14:37:06;;;;;;;;;2.00;2.00;;;;;9.63;71.10;99879.09;5842733;24;45371;-92
2022/11/04 14:43:45;;;;;;;;;1.00;1.00;;;;;12.35;71.71;100331.41;5814899;24;45429;-93
2022/11/04 14:56:47;;;;;;;;;;;;;;;;;;;;;
2022/11/04 14:59:30;;;;;;;;;3.00;3.00;;;;;10.29;70.97;100043.63;5864848;24;75212;-94
2022/11/04 15:02:26;;;;;;;;;3.25;2.25;;;;;12.20;71.14;100380.44;5873119;24;45181;-93
2022/11/04 15:04:58;;;;;;;;;4.00;3.00;;;;;10.14;71.25;100044.91;5892821;24;44785;-92
2022/11/04 15:07:35;;;;;;;;;3.00;3.00;;;;;11.16;71.54;100208.66;6007571;23;45332;-91
2022/11/04 15:10:23;;;;;;;;;3.75;3.75;;;;;12.16;71.36;100413.22;6010627;23;46801;-94
2022/11/04 15:13:14;;;;;;;;;3.50;3.50;;;;;9.68;71.24;99987.16;6013073;23;45608;-92
2022/11/04 15:15:54;;;;;;;;;2.75;2.75;;;;;11.91;71.57;100363.59;6019859;23;45248;-92
2022/11/04 15:18:34;;;;;;;;;2.00;2.00;;;;;10.89;71.64;100186.50;6078634;23;44869;-91
2022/11/04 15:21:11;;;;;;;;;2.00;2.00;;;;;12.07;71.90;100407.31;6157823;23;46572;-94
2022/11/04 15:23:57;;;;;;;;;2.00;2.00;;;;;10.01;71.54;100061.09;6188413;23;45188;-95
2022/11/04 15:26:36;;;;;;;;;4.75;3.00;;;;;10.43;70.91;100156.88;6187599;23;45192;-94
2022/11/04 15:29:16;;;;;;;;;2.75;1.00;;;;;10.27;71.46;100127.31;6185903;23;45257;-92
2022/11/04 15:32:03;;;;;;;;;0.25;0.25;;;;;10.86;71.33;100246.53;6184610;23;47228;-93
2022/11/04 15:34:33;;;;;;;;;0.50;0.00;;;;;9.40;70.52;99991.34;6159568;23;45454;-92
2022/11/04 15:37:05;;;;;;;;;0.50;0.50;;;;;10.68;70.98;100214.38;6167316;23;45375;-93
2022/11/04 15:39:57;;;;;;;;;1.00;1.00;;;;;10.40;70.60;100182.50;6196018;23;45260;-93
2022/11/04 15:42:45;;;;;;;;;0.00;0.00;;;;;10.06;70.23;100109.38;6191770;23;45240;-93
2022/11/04 15:45:29;;;;;;;;;1.00;1.00;;;;;11.83;70.22;100407.97;6185778;23;45398;-93
2022/11/04 15:48:24;;;;;;;;;0.00;0.00;;;;;11.79;70.26;100409.81;6185313;23;45287;-92
2022/11/04 15:50:54;;;;;;;;;1.00;0.00;;;;;11.76;69.79;100404.59;6159055;23;45321;-92
2022/11/04 15:53:24;;;;;;;;;0.00;0.00;;;;;10.47;69.94;100226.34;6164346;23;47075;-94
2022/11/04 15:55:49;;;;;;;;;0.00;0.00;;;;;9.98;69.61;100132.47;6170160;23;45397;-93
2022/11/04 15:58:24;;;;;;;;;0.00;0.00;;;;;11.58;69.49;100416.56;6186106;23;45309;-94
2022/11/04 16:01:03;;;;;;;;;0.00;0.00;;;;;10.97;69.17;100329.94;6160448;23;45366;-95
2022/11/04 16:03:29;;;;;;;;;0.50;0.00;;;;;10.30;69.28;100229.38;6167456;23;48010;-94
2022/11/04 16:06:09;;;;;;;;;0.00;0.00;;;;;10.81;69.15;100337.41;6167334;23;45364;-92
2022/11/04 16:08:36;;;;;;;;;0.00;0.00;;;;;8.99;69.02;100040.63;6207827;23;44627;-92
2022/11/04 16:11:21;;;;;;;;;0.00;0.00;;;;;10.22;69.70;100252.47;6169234;23;45187;-92
2022/11/04 16:13:49;;;;;;;;;1.00;1.00;;;;;10.39;69.35;100302.31;6160793;23;45989;-92
2022/11/04 16:16:32;;;;;;;;;0.00;0.00;;;;;10.81;69.44;100373.53;6159884;23;45177;-92
2022/11/04 16:19:08;;;;;;;;;0.00;0.00;;;;;10.22;69.47;100300.00;6179304;23;45414;-94
2022/11/04 16:21:39;;;;;;;;;0.00;0.00;;;;;9.41;69.53;100188.28;6156628;23;45291;-94
2022/11/04 16:24:25;;;;;;;;;1.00;1.00;;;;;10.49;69.80;100362.81;6179600;23;45434;-94
2022/11/04 16:26:57;;;;;;;;;0.25;0.25;;;;;10.08;69.91;100324.97;6159397;23;45299;-94
2022/11/04 16:29:36;;;;;;;;;2.00;2.00;;;;;8.39;69.71;100044.47;6163718;23;45229;-93
2022/11/04 16:32:15;;;;;;;;;1.00;1.00;;;;;11.16;70.12;100517.31;6135835;23;45188;-93
2022/11/04 16:35:08;;;;;;;;;1.00;1.00;;;;;10.49;70.30;100430.63;6156971;23;46855;-93
2022/11/04 16:37:49;;;;;;;;;0.00;0.00;;;;;9.22;70.22;100244.94;6180064;23;45185;-94
2022/11/04 16:40:19;;;;;;;;;2.00;1.00;;;;;9.83;70.23;100366.00;6154904;23;45344;-93
2022/11/04 16:49:43;;;;;;;;;1.00;1.00;;;;;8.95;70.59;100202.38;6077784;23;45219;-92
2022/11/04 16:55:31;;;;;;;;;0.00;0.00;;;;;8.94;70.53;100203.28;6076336;23;45225;-93
2022/11/04 16:58:34;;;;;;;;;;;;;;;;;;;;;
2022/11/04 17:01:00;;;;;;;;;3.00;1.00;;;;;9.95;70.60;100378.94;6076635;23;45234;-93
2022/11/04 17:03:31;;;;;;;;;0.50;0.50;;;;;10.20;70.78;100420.66;6047182;23;45363;-94
2022/11/04 17:05:57;;;;;;;;;0.75;0.75;;;;;9.06;70.54;100229.44;6065592;23;45286;-93
2022/11/04 17:08:38;;;;;;;;;;;;;;;;;;;;;
2022/11/04 17:11:08;;;;;;;;;1.00;1.00;;;;;10.53;70.90;100516.03;6032529;23;72155;-91
2022/11/04 17:13:34;;;;;;;;;1.25;1.00;;;;;8.16;70.25;100118.63;6072699;23;45325;-93
2022/11/04 17:16:02;;;;;;;;;2.00;2.00;;;;;9.25;71.06;100309.03;6025261;23;45293;-96
2022/11/04 17:18:35;;;;;;;;;2.00;2.00;;;;;10.51;71.12;100509.88;6030751;23;45276;-93
2022/11/04 17:21:06;;;;;;;;;3.25;3.25;;;;;8.39;71.03;100159.47;6050648;23;44801;-93
2022/11/04 17:23:33;;;;;;;;;1.25;1.25;;;;;9.13;71.09;100289.94;6114514;23;44597;-93
2022/11/04 17:25:59;;;;;;;;;2.50;2.00;;;;;9.54;71.06;100385.91;6170449;23;44825;-93
2022/11/04 17:28:32;;;;;;;;;2.00;2.00;;;;;9.41;71.08;100367.66;6136214;23;45364;-92
2022/11/04 17:31:08;;;;;;;;;2.00;1.50;;;;;8.45;70.90;100218.19;6159584;23;45276;-93
2022/11/04 17:34:25;;;;;;;;;2.00;2.00;;;;;8.00;70.72;100112.72;6117565;23;45238;-94
2022/11/04 17:44:17;;;;;;;;;1.00;1.00;;;;;11.13;70.86;100676.94;6056160;23;44605;-93
2022/11/04 17:46:51;;;;;;;;;1.00;1.00;;;;;9.25;71.23;100380.25;6028292;23;45220;-92
2022/11/04 17:49:21;;;;;;;;;2.50;2.25;;;;;9.49;70.93;100440.50;6046571;23;45274;-93
2022/11/04 17:51:49;;;;;;;;;2.50;2.50;;;;;8.63;70.79;100311.00;6043604;23;46331;-92
2022/11/04 17:57:48;;;;;;;;;1.00;1.00;;;;;8.32;71.45;100288.63;6039247;23;45319;-94
2022/11/04 18:03:51;;;;;;;;;4.25;4.25;;;;;8.49;71.19;100342.84;6044807;23;44853;-94
2022/11/04 18:09:40;;;;;;;;;3.00;3.00;;;;;10.70;71.39;100750.94;6051478;23;45282;-92
2022/11/04 18:15:29;;;;;;;;;3.00;2.00;;;;;9.73;70.90;100603.72;6164018;23;45398;-92
2022/11/04 18:17:58;;;;;;;;;3.00;3.00;;;;;9.87;71.26;100652.75;6135824;23;45169;-93
2022/11/04 18:20:33;;;;;;;;;2.00;2.00;;;;;8.16;71.30;100368.72;6135287;23;45250;-93